Dirección General De Aeronáutica Civil

Dirección Meteorológica de Chile - Servicios Climáticos

Informe General de Control de Calidad de la Estación

Listado de niveles de control de calidad para algunos parámetros
Estación San Felipe Escuela Agrícola (320019)
Fecha de Revisión de los datos :

Elementos

Registros Niveles de Control Total
Nivel 0 Nivel 1 Nivel 2 Nivel 3 Errores Porcentaje
01 Temperatura del Aire Seco 53.402 0 . 0 . 0 . 0 . 0 0.00 %
02 Temperatura de Rocío 39.564 0 . 0 . 0 . 0 . 0 0.00 %
03 Humedad Relativa del Aire 39.675 0 . 0 . 0 . 0 . 0 0.00 %
04 Temperatura Máxima PM 7.135 0 . 0 . 45 0.63 % 0 . 45 0.63 %
05 Temperatura Mínima AM 7.054 0 . 0 . 7 0.10 % 0 . 7 0.10 %
06 Viento a 10 m. de Altura 39.753 0 . 0 . 0 . 0 . 0 0.00 %
07 Agua Caida, Acumulada 6 Horas 6.633 0 . 0 . 0 . 0 . 0 0.00 %
08 Presión Atm. a Nivel de Estación (QFE) 39.752 0 . 0 . 0 . 0 . 0 0.00 %
09 Presión Atm. a Nivel Medio del Mar (QFF) 39.738 0 . 0 . 0 . 0 . 0 0.00 %

Totales

272.706 . 0.0000 % . 0.0000 % . 0.0191 % . 0.0000 % 52 0.0191 %

Detalle de Errores Recientes

Fecha del Dato Descripción Información Error Fecha Ingreso
2023-12-10 00:00:00 Temperatura 34.1 del 09-12-2023 19:00, Mayor que la Máxima 33.7 10-12-2023 00:00 34.1 -- 33.7 2024-01-10 15:19:00
Total de Errores Recientes 1

Detalle de Errores Encontrados

Nivel Fecha del Dato Descripción Información Error Fecha Ingreso
2 1994-05-04 00:00:00 Temperatura 27.2 del 03-05-1994 18:00, Mayor que la Máxima 25.2 04-05-1994 00:00 27.2 -- 25.2 2023-12-28 22:29:00
2 1994-07-06 00:00:00 Temperatura 13.8 del 05-07-1994 18:00, Mayor que la Máxima 11.0 06-07-1994 00:00 13.8 -- 11.0 2023-12-28 22:29:00
2 1994-07-09 00:00:00 Temperatura 22.8 del 08-07-1994 18:00, Mayor que la Máxima 19.0 09-07-1994 00:00 22.8 -- 19.0 2023-12-28 22:29:00
2 1994-07-15 00:00:00 Temperatura 21.2 del 14-07-1994 18:00, Mayor que la Máxima 14.5 15-07-1994 00:00 21.2 -- 14.5 2023-12-28 22:29:00
2 1994-07-16 00:00:00 Temperatura 24.8 del 15-07-1994 18:00, Mayor que la Máxima 24.2 16-07-1994 00:00 24.8 -- 24.2 2023-12-28 22:29:00
2 1994-07-27 00:00:00 Temperatura 18.2 del 26-07-1994 18:00, Mayor que la Máxima 15.0 27-07-1994 00:00 18.2 -- 15.0 2023-12-28 22:29:00
2 1994-07-29 00:00:00 Temperatura 14.0 del 28-07-1994 18:00, Mayor que la Máxima 10.2 29-07-1994 00:00 14.0 -- 10.2 2023-12-28 22:29:00
2 1994-08-03 00:00:00 Temperatura 20.0 del 02-08-1994 18:00, Mayor que la Máxima 17.6 03-08-1994 00:00 20.0 -- 17.6 2023-12-28 22:29:00
2 1994-08-04 00:00:00 Temperatura 24.2 del 03-08-1994 18:00, Mayor que la Máxima 21.0 04-08-1994 00:00 24.2 -- 21.0 2023-12-28 22:29:00
2 1994-08-10 00:00:00 Temperatura 18.0 del 09-08-1994 18:00, Mayor que la Máxima 10.0 10-08-1994 00:00 18.0 -- 10.0 2023-12-28 22:29:00
2 1994-08-11 00:00:00 Temperatura 24.2 del 10-08-1994 18:00, Mayor que la Máxima 18.6 11-08-1994 00:00 24.2 -- 18.6 2023-12-28 22:29:00
2 1994-08-12 00:00:00 Temperatura 25.2 del 11-08-1994 18:00, Mayor que la Máxima 24.2 12-08-1994 00:00 25.2 -- 24.2 2023-12-28 22:29:00
2 1994-08-20 00:00:00 Temperatura 19.5 del 19-08-1994 18:00, Mayor que la Máxima 17.0 20-08-1994 00:00 19.5 -- 17.0 2023-12-28 22:29:00
2 1994-08-26 00:00:00 Temperatura 21.2 del 25-08-1994 18:00, Mayor que la Máxima 15.0 26-08-1994 00:00 21.2 -- 15.0 2023-12-28 22:29:00
2 1994-08-27 00:00:00 Temperatura 25.0 del 26-08-1994 18:00, Mayor que la Máxima 21.4 27-08-1994 00:00 25.0 -- 21.4 2023-12-28 22:29:00
2 1994-09-02 00:00:00 Temperatura 18.0 del 01-09-1994 18:00, Mayor que la Máxima 16.0 02-09-1994 00:00 18.0 -- 16.0 2023-12-28 22:29:00
2 1994-09-03 00:00:00 Temperatura 23.0 del 02-09-1994 18:00, Mayor que la Máxima 18.2 03-09-1994 00:00 23.0 -- 18.2 2023-12-28 22:29:00
2 1994-09-07 00:00:00 Temperatura 26.2 del 06-09-1994 18:00, Mayor que la Máxima 21.0 07-09-1994 00:00 26.2 -- 21.0 2023-12-28 22:29:00
2 1994-09-08 00:00:00 Temperatura 32.2 del 07-09-1994 18:00, Mayor que la Máxima 27.2 08-09-1994 00:00 32.2 -- 27.2 2023-12-28 22:29:00
2 1994-09-13 00:00:00 Temperatura 17.2 del 12-09-1994 18:00, Mayor que la Máxima 14.0 13-09-1994 00:00 17.2 -- 14.0 2023-12-28 22:29:00
2 1994-09-14 00:00:00 Temperatura 21.2 del 13-09-1994 18:00, Mayor que la Máxima 18.5 14-09-1994 00:00 21.2 -- 18.5 2023-12-28 22:29:00
2 1994-09-17 00:00:00 Temperatura 25.0 del 16-09-1994 18:00, Mayor que la Máxima 19.8 17-09-1994 00:00 25.0 -- 19.8 2023-12-28 22:29:00
2 1994-09-22 00:00:00 Temperatura 24.6 del 21-09-1994 18:00, Mayor que la Máxima 19.0 22-09-1994 00:00 24.6 -- 19.0 2023-12-28 22:29:00
2 1994-12-01 00:00:00 Temperatura 32.5 del 30-11-1994 18:00, Mayor que la Máxima 30.5 01-12-1994 00:00 32.5 -- 30.5 2023-12-28 22:29:00
2 1994-12-19 00:00:00 Temperatura 32.6 del 18-12-1994 18:00, Mayor que la Máxima 31.5 19-12-1994 00:00 32.6 -- 31.5 2023-12-28 22:29:00
2 1995-02-07 00:00:00 Temperatura 30.2 del 06-02-1995 18:00, Mayor que la Máxima 30.0 07-02-1995 00:00 30.2 -- 30.0 2023-12-28 22:29:00
2 2000-01-04 00:00:00 Temperatura 29.0 del 03-01-2000 18:00, Mayor que la Máxima 20.4 04-01-2000 00:00 29.0 -- 20.4 2023-12-28 22:37:00
2 2000-02-05 00:00:00 Temperatura 29.9 del 04-02-2000 18:00, Mayor que la Máxima 20.2 05-02-2000 00:00 29.9 -- 20.2 2023-12-28 22:37:00
2 2000-07-19 00:00:00 Temperatura 20.8 del 18-07-2000 18:00, Mayor que la Máxima 20.2 19-07-2000 00:00 20.8 -- 20.2 2023-12-28 22:37:00
2 2000-08-22 00:00:00 Temperatura 11.7 del 21-08-2000 18:00, Mayor que la Máxima 11.4 22-08-2000 00:00 11.7 -- 11.4 2023-12-28 22:38:00
2 2000-09-09 00:00:00 Temperatura 16.1 del 08-09-2000 18:00, Mayor que la Máxima 15.6 09-09-2000 00:00 16.1 -- 15.6 2023-12-28 22:38:00
2 2000-11-03 00:00:00 Temperatura 22.7 del 02-11-2000 18:00, Mayor que la Máxima 22.2 03-11-2000 00:00 22.7 -- 22.2 2023-12-28 22:38:00
2 2001-05-04 00:00:00 Temperatura 28.4 del 03-05-2001 18:00, Mayor que la Máxima 28.1 04-05-2001 00:00 28.4 -- 28.1 2023-12-28 22:38:00
2 2001-06-03 00:00:00 Temperatura 11.4 del 03-06-2001 00:00, Mayor que la Máxima 10.5 03-06-2001 00:00 11.4 -- 10.5 2023-12-28 22:39:00
2 2001-07-09 00:00:00 Temperatura 12.6 del 09-07-2001 00:00, Mayor que la Máxima 10.4 09-07-2001 00:00 12.6 -- 10.4 2023-12-28 22:39:00
2 2001-11-26 00:00:00 Temperatura 30.2 del 25-11-2001 18:00, Mayor que la Máxima 29.8 26-11-2001 00:00 30.2 -- 29.8 2023-12-28 22:39:00
2 2001-12-02 00:00:00 Temperatura 28.4 del 01-12-2001 18:00, Mayor que la Máxima 28.1 02-12-2001 00:00 28.4 -- 28.1 2023-12-28 22:39:00
2 2002-06-16 00:00:00 Temperatura 20.2 del 15-06-2002 18:00, Mayor que la Máxima 14.8 16-06-2002 00:00 20.2 -- 14.8 2023-12-28 22:40:00
2 2002-10-09 00:00:00 Temperatura 23.6 del 08-10-2002 18:00, Mayor que la Máxima 23.1 09-10-2002 00:00 23.6 -- 23.1 2023-12-28 22:40:00
2 2002-12-09 00:00:00 Temperatura 30.0 del 08-12-2002 18:00, Mayor que la Máxima 26.0 09-12-2002 00:00 30.0 -- 26.0 2023-12-28 22:41:00
2 2003-03-06 00:00:00 Temperatura 24.4 del 05-03-2003 18:00, Mayor que la Máxima 24.0 06-03-2003 00:00 24.4 -- 24.0 2023-12-28 22:41:00
2 2003-07-08 00:00:00 Temperatura 11.8 del 08-07-2003 00:00, Mayor que la Máxima 10.2 08-07-2003 00:00 11.8 -- 10.2 2023-12-28 22:41:00
2 2003-07-09 00:00:00 Temperatura 9.6 del 09-07-2003 00:00, Mayor que la Máxima 7.2 09-07-2003 00:00 9.6 -- 7.2 2023-12-28 22:41:00
2 2022-06-15 00:00:00 Temperatura 13.4 del 14-06-2022 20:00, Mayor que la Máxima 11.8 15-06-2022 00:00 13.4 -- 11.8 2022-06-15 00:09:00
2 2023-12-10 00:00:00 Temperatura 34.1 del 09-12-2023 19:00, Mayor que la Máxima 33.7 10-12-2023 00:00 34.1 -- 33.7 2024-01-10 15:19:00
2 1994-07-21 12:00:00 Temperatura 7.6 del 21-07-1994 12:00, Menor que la Mínima 8.2 21-07-1994 12:00 7.6 -- 8.2 2023-12-28 22:29:00
2 1994-08-12 12:00:00 Temperatura 6.0 del 12-08-1994 12:00, Menor que la Mínima 8.2 12-08-1994 12:00 6.0 -- 8.2 2023-12-28 22:29:00
2 1994-11-03 12:00:00 Temperatura 8.8 del 03-11-1994 12:00, Menor que la Mínima 9.0 03-11-1994 12:00 8.8 -- 9.0 2023-12-28 22:29:00
2 2002-06-16 12:00:00 Temperatura 2.2 del 16-06-2002 12:00, Menor que la Mínima 2.5 16-06-2002 12:00 2.2 -- 2.5 2023-12-28 22:40:00
2 2002-06-21 12:00:00 Temperatura 3.6 del 21-06-2002 12:00, Menor que la Mínima 3.7 21-06-2002 12:00 3.6 -- 3.7 2023-12-28 22:40:00
2 2002-09-22 12:00:00 Temperatura 5.9 del 22-09-2002 12:00, Menor que la Mínima 7.6 22-09-2002 12:00 5.9 -- 7.6 2023-12-28 22:40:00
2 2004-03-02 12:00:00 Temperatura 11.4 del 02-03-2004 12:00, Menor que la Mínima 12.8 02-03-2004 12:00 11.4 -- 12.8 2023-12-29 22:17:00
Errores del Nivel 52
Informe generado el 05-03-2024 11:49
Requerimiento: RE6001